Observation data for Morton on 01/11/2018      Previous  Date  Next       Current Mesonet Observations  Soil Data  Daily Summary Page  Observations in Plain Language
KMNS 110600Z 24017G26KT 09/M02 A2959 RMK A01 T00941019  RH  046%=      5-min Rain = 0
KMNS 110605Z 24019G26KT 09/M02 A2959 RMK A01 T00941018  RH  046%=      5-min Rain = 0
KMNS 110610Z 24019G25KT 09/M02 A2959 RMK A01 T00921017  RH  047%=      5-min Rain = 0
KMNS 110615Z 24020G26KT 09/M02 A2959 RMK A01 T00931016  RH  047%=      5-min Rain = 0
KMNS 110620Z 24019G26KT 09/M02 A2959 RMK A01 T00921016  RH  047%=      5-min Rain = 0
KMNS 110625Z 24021G26KT 09/M02 A2959 RMK A01 T00911016  RH  048%=      5-min Rain = 0
KMNS 110630Z 25019G27KT 09/M02 A2959 RMK A01 T00901015  RH  048%=      5-min Rain = 0
KMNS 110635Z 25019G26KT 09/M01 A2959 RMK A01 T00891013  RH  049%=      5-min Rain = 0
KMNS 110640Z 25020G27KT 09/M01 A2959 RMK A01 T00891010  RH  050%=      5-min Rain = 0
KMNS 110645Z 25021G27KT 09/M01 A2959 RMK A01 T00891008  RH  051%=      5-min Rain = 0
KMNS 110650Z 25020G25KT 09/M01 A2959 RMK A01 T00891006  RH  052%=      5-min Rain = 0
KMNS 110655Z 25020G26KT 09/M00 A2959 RMK A01 T00891004  RH  053%=      5-min Rain = 0
KMNS 110700Z 25021G28KT 09/M00 A2959 RMK A01 T00891003  RH  053%=      5-min Rain = 0
KMNS 110705Z 26021G29KT 09/M00 A296 RMK A01 T00881002  RH  054%=      5-min Rain = 0
KMNS 110710Z 26022G28KT 09/M00 A296 RMK A01 T00891001  RH  054%=      5-min Rain = 0
KMNS 110715Z 26021G27KT 09/M00 A2961 RMK A01 T00891001  RH  054%=      5-min Rain = 0
KMNS 110720Z 26020G26KT 09/00 A2961 RMK A01 T008800-0  RH  054%=      5-min Rain = 0
KMNS 110725Z 26020G29KT 09/00 A2961 RMK A01 T00880000  RH  055%=      5-min Rain = 0
KMNS 110730Z 26020G27KT 09/00 A2962 RMK A01 T00880001  RH  055%=      5-min Rain = 0
KMNS 110735Z 26020G28KT 09/00 A2962 RMK A01 T00880001  RH  055%=      5-min Rain = 0
KMNS 110740Z 26020G25KT 09/00 A2962 RMK A01 T00880001  RH  055%=      5-min Rain = 0
KMNS 110745Z 26016G21KT 09/00 A2963 RMK A01 T00870001  RH  055%=      5-min Rain = 0
KMNS 110750Z 26018G24KT 09/00 A2963 RMK A01 T00860001  RH  056%=      5-min Rain = 0
KMNS 110755Z 26016G22KT 09/00 A2964 RMK A01 T00860001  RH  056%=      5-min Rain = 0
KMNS 110800Z 26016G21KT 09/00 A2964 RMK A01 T00860001  RH  056%=      5-min Rain = 0
KMNS 110805Z 26015G23KT 09/00 A2964 RMK A01 T00850001  RH  056%=      5-min Rain = 0
KMNS 110810Z 27015G20KT 09/00 A2965 RMK A01 T00850002  RH  056%=      5-min Rain = 0
KMNS 110815Z 27016G22KT 09/00 A2965 RMK A01 T00870002  RH  056%=      5-min Rain = 0
KMNS 110820Z 27016KT 09/00 A2965 RMK A01 T00860002  RH  056%=      5-min Rain = 0
KMNS 110825Z 27017KT 09/00 A2965 RMK A01 T00850002  RH  057%=      5-min Rain = 0
KMNS 110830Z 28015G21KT 08/00 A2965 RMK A01 T00830002  RH  057%=      5-min Rain = 0
KMNS 110835Z 28017G24KT 09/00 A2966 RMK A01 T00850003  RH  057%=      5-min Rain = 0
KMNS 110840Z 28020G26KT 09/00 A2966 RMK A01 T00870003  RH  056%=      5-min Rain = 0
KMNS 110845Z 29018G23KT 09/00 A2967 RMK A01 T00900003  RH  055%=      5-min Rain = 0
KMNS 110850Z 29015G21KT 09/00 A2968 RMK A01 T00890003  RH  056%=      5-min Rain = 0
KMNS 110855Z 29014G20KT 09/00 A2968 RMK A01 T00890003  RH  056%=      5-min Rain = 0
KMNS 110900Z 29016G27KT 09/00 A2969 RMK A01 T00910003  RH  055%=      5-min Rain = 0
KMNS 110905Z 29013KT 09/00 A2969 RMK A01 T00890002  RH  055%=      5-min Rain = 0
KMNS 110910Z 29012G17KT 09/00 A2969 RMK A01 T00870002  RH  056%=      5-min Rain = 0
KMNS 110915Z 29012KT 09/00 A2969 RMK A01 T00880001  RH  055%=      5-min Rain = 0
KMNS 110920Z 29011KT 09/00 A297 RMK A01 T00890000  RH  054%=      5-min Rain = 0
KMNS 110925Z 29010KT 09/00 A297 RMK A01 T00890000  RH  054%=      5-min Rain = 0
KMNS 110930Z 29009KT 09/00 A2971 RMK A01 T00880000  RH  055%=      5-min Rain = 0
KMNS 110935Z 30010KT 09/00 A2971 RMK A01 T00880001  RH  055%=      5-min Rain = 0
KMNS 110940Z 34018G34KT 09/01 A2972 RMK A01 T00900010  RH  058%=      5-min Rain = 0
KMNS 110945Z 36023G31KT 09/03 A2972 RMK A01 T00890026  RH  065%=      5-min Rain = 0
KMNS 110950Z 36021G28KT 09/03 A2972 RMK A01 T00870027  RH  067%=      5-min Rain = 0
KMNS 110955Z 36019G24KT 08/03 A2973 RMK A01 T00840030  RH  070%=      5-min Rain = 0
KMNS 111000Z 00019G26KT 08/03 A2974 RMK A01 T00820029  RH  070%=      5-min Rain = 0
KMNS 111005Z 00017G22KT 08/03 A2974 RMK A01 T00810026  RH  069%=      5-min Rain = 0
KMNS 111010Z 36019G26KT 08/02 A2974 RMK A01 T00810023  RH  068%=      5-min Rain = 0
KMNS 111015Z 00019G25KT 08/02 A2975 RMK A01 T00790019  RH  066%=      5-min Rain = 0
KMNS 111020Z 01017G23KT 08/02 A2975 RMK A01 T00780017  RH  066%=      5-min Rain = 0
KMNS 111025Z 00017G24KT 08/02 A2975 RMK A01 T00760015  RH  066%=      5-min Rain = 0
KMNS 111030Z 36015KT 07/02 A2976 RMK A01 T00740016  RH  067%=      5-min Rain = 0
KMNS 111035Z 35017G27KT 07/02 A2976 RMK A01 T00730016  RH  067%=      5-min Rain = 0
KMNS 111040Z 36021G29KT 08/01 A2977 RMK A01 T00750012  RH  065%=      5-min Rain = 0
KMNS 111045Z 00021G28KT 07/01 A2977 RMK A01 T00730006  RH  063%=      5-min Rain = 0
KMNS 111050Z 36016G22KT 07/01 A2978 RMK A01 T00710005  RH  064%=      5-min Rain = 0
KMNS 111055Z 35019G25KT 07/01 A2978 RMK A01 T00700006  RH  064%=      5-min Rain = 0
KMNS 111100Z 35018G29KT 07/01 A2979 RMK A01 T00700007  RH  065%=      5-min Rain = 0
KMNS 111105Z 34019G27KT 07/00 A2979 RMK A01 T00680004  RH  065%=      5-min Rain = 0
KMNS 111110Z 35022G29KT 07/00 A2979 RMK A01 T00660000  RH  064%=      5-min Rain = 0
KMNS 111115Z 35018G24KT 07/00 A298 RMK A01 T006500-0  RH  064%=      5-min Rain = 0
KMNS 111120Z 34016G21KT 06/00 A298 RMK A01 T006400-0  RH  064%=      5-min Rain = 0
KMNS 111125Z 33020G27KT 06/00 A2981 RMK A01 T006400-0  RH  064%=      5-min Rain = 0
KMNS 111130Z 34021G26KT 06/M00 A2981 RMK A01 T00641003  RH  063%=      5-min Rain = 0
KMNS 111135Z 34021G27KT 06/M00 A2982 RMK A01 T00641004  RH  063%=      5-min Rain = 0
KMNS 111140Z 35020G26KT 06/M01 A2982 RMK A01 T00631005  RH  062%=      5-min Rain = 0
KMNS 111145Z 35018KT 06/M00 A2982 RMK A01 T00621004  RH  063%=      5-min Rain = 0
KMNS 111150Z 33020G27KT 06/M00 A2983 RMK A01 T00601003  RH  065%=      5-min Rain = 0
KMNS 111155Z 34019G26KT 06/M01 A2983 RMK A01 T00581006  RH  064%=      5-min Rain = 0
KMNS 111200Z 34019G28KT 06/M01 A2984 RMK A01 T00571007  RH  064%=      5-min Rain = 0
KMNS 111205Z 34020G30KT 06/M01 A2984 RMK A01 T00561007  RH  065%=      5-min Rain = 0
KMNS 111210Z 34025G34KT 05/M01 A2985 RMK A01 T00531010  RH  065%=      5-min Rain = 0
KMNS 111215Z 34024G34KT 05/M01 A2986 RMK A01 T00511012  RH  064%=      5-min Rain = 0
KMNS 111220Z 35023G31KT 05/M01 A2986 RMK A01 T00511013  RH  064%=      5-min Rain = 0
KMNS 111225Z 35025G33KT 05/M02 A2986 RMK A01 T00501015  RH  063%=      5-min Rain = 0
KMNS 111230Z 35022G29KT 05/M02 A2987 RMK A01 T00491017  RH  063%=      5-min Rain = 0
KMNS 111235Z 34019G25KT 05/M02 A2987 RMK A01 T00481016  RH  064%=      5-min Rain = 0
KMNS 111240Z 34020G26KT 05/M01 A2988 RMK A01 T00471012  RH  066%=      5-min Rain = 0
KMNS 111245Z 33020G27KT 05/M01 A2988 RMK A01 T00461011  RH  067%=      5-min Rain = 0
KMNS 111250Z 34022G29KT 05/M02 A2989 RMK A01 T00461016  RH  065%=      5-min Rain = 0
KMNS 111255Z 34023G31KT 05/M02 A2989 RMK A01 T00451021  RH  063%=      5-min Rain = 0
KMNS 111300Z 35026G34KT 05/M03 A2989 RMK A01 T00451025  RH  061%=      5-min Rain = 0
KMNS 111305Z 35026G34KT 04/M03 A299 RMK A01 T00441029  RH  060%=      5-min Rain = 0
KMNS 111310Z 35027G34KT 04/M04 A299 RMK A01 T00431035  RH  057%=      5-min Rain = 0
KMNS 111315Z 35025G31KT 04/M04 A2991 RMK A01 T00421041  RH  055%=      5-min Rain = 0
KMNS 111320Z 35025G33KT 04/M04 A2991 RMK A01 T00411043  RH  055%=      5-min Rain = 0
KMNS 111325Z 35023G29KT 04/M04 A2991 RMK A01 T00401043  RH  055%=      5-min Rain = 0
KMNS 111330Z 36022KT 04/M04 A2991 RMK A01 T00391043  RH  056%=      5-min Rain = 0
KMNS 111335Z 36022G30KT 04/M05 A2991 RMK A01 T00371047  RH  055%=      5-min Rain = 0
KMNS 111340Z 00022G28KT 04/M05 A2992 RMK A01 T00361050  RH  054%=      5-min Rain = 0
KMNS 111345Z 36022G28KT 03/M06 A2992 RMK A01 T00341056  RH  053%=      5-min Rain = 0
KMNS 111350Z 00018G28KT 03/M06 A2993 RMK A01 T00321057  RH  053%=      5-min Rain = 0
KMNS 111355Z 36017G23KT 03/M06 A2993 RMK A01 T00291057  RH  053%=      5-min Rain = 0
KMNS 111400Z 36020G27KT 03/M06 A2994 RMK A01 T00281057  RH  054%=      5-min Rain = 0
KMNS 111405Z 35016G24KT 03/M06 A2994 RMK A01 T00271056  RH  055%=      5-min Rain = 0
KMNS 111410Z 35019G26KT 03/M05 A2995 RMK A01 T00271054  RH  056%=      5-min Rain = 0
KMNS 111415Z 34021G27KT 03/M05 A2995 RMK A01 T00261053  RH  057%=      5-min Rain = 0
KMNS 111420Z 35020G26KT 02/M05 A2996 RMK A01 T00241052  RH  057%=      5-min Rain = 0
KMNS 111425Z 35017G23KT 02/M05 A2997 RMK A01 T00221052  RH  058%=      5-min Rain = 0
KMNS 111430Z 34020G26KT 02/M05 A2997 RMK A01 T00211053  RH  058%=      5-min Rain = 0
KMNS 111435Z 34025G32KT 02/M07 A2998 RMK A01 T00171066  RH  055%=      5-min Rain = 0
KMNS 111440Z 35023G32KT 01/M07 A2999 RMK A01 T00131071  RH  054%=      5-min Rain = 0
KMNS 111445Z 35023G31KT 01/M07 A2999 RMK A01 T00121073  RH  054%=      5-min Rain = 0
KMNS 111450Z 35022G28KT 01/M08 A30 RMK A01 T00121075  RH  053%=      5-min Rain = 0
KMNS 111455Z 35021G28KT 01/M08 A3001 RMK A01 T00121076  RH  052%=      5-min Rain = 0
KMNS 111500Z 35020G25KT 01/M08 A3002 RMK A01 T00141076  RH  052%=      5-min Rain = 0
KMNS 111505Z 35020G30KT 02/M08 A3002 RMK A01 T00151077  RH  051%=      5-min Rain = 0
KMNS 111510Z 35020G27KT 02/M08 A3003 RMK A01 T00171077  RH  050%=      5-min Rain = 0
KMNS 111515Z 35024G31KT 02/M08 A3003 RMK A01 T00171079  RH  049%=      5-min Rain = 0
KMNS 111520Z 35023G30KT 02/M08 A3004 RMK A01 T00181079  RH  049%=      5-min Rain = 0
KMNS 111525Z 35023G33KT 02/M08 A3004 RMK A01 T00211078  RH  048%=      5-min Rain = 0
KMNS 111530Z 35024G36KT 02/M08 A3005 RMK A01 T00211080  RH  048%=      5-min Rain = 0
KMNS 111535Z 35024G31KT 02/M08 A3005 RMK A01 T00231080  RH  047%=      5-min Rain = 0
KMNS 111540Z 35022G30KT 03/M08 A3005 RMK A01 T00261079  RH  046%=      5-min Rain = 0
KMNS 111545Z 35023G31KT 03/M08 A3005 RMK A01 T00261080  RH  046%=      5-min Rain = 0
KMNS 111550Z 35022G32KT 03/M08 A3006 RMK A01 T00271081  RH  045%=      5-min Rain = 0
KMNS 111555Z 36024G30KT 03/M08 A3006 RMK A01 T00291080  RH  045%=      5-min Rain = 0
KMNS 111600Z 35021G32KT 03/M08 A3007 RMK A01 T00311081  RH  044%=      5-min Rain = 0
KMNS 111605Z 35022G27KT 03/M08 A3007 RMK A01 T00341081  RH  043%=      5-min Rain = 0
KMNS 111610Z 34024G31KT 04/M08 A3008 RMK A01 T00361082  RH  042%=      5-min Rain = 0
KMNS 111615Z 35021G28KT 04/M08 A3009 RMK A01 T00391082  RH  041%=      5-min Rain = 0
KMNS 111620Z 35023G30KT 04/M08 A301 RMK A01 T00421084  RH  040%=      5-min Rain = 0
KMNS 111625Z 35022G30KT 04/M09 A3011 RMK A01 T00391085  RH  040%=      5-min Rain = 0
KMNS 111630Z 35022G29KT 04/M09 A3011 RMK A01 T00361087  RH  041%=      5-min Rain = 0
KMNS 111635Z 34020G29KT 04/M09 A3012 RMK A01 T00391086  RH  040%=      5-min Rain = 0
KMNS 111640Z 34021G30KT 04/M09 A3012 RMK A01 T00421086  RH  039%=      5-min Rain = 0
KMNS 111645Z 34021G29KT 04/M09 A3012 RMK A01 T00431086  RH  039%=      5-min Rain = 0
KMNS 111650Z 35021G29KT 04/M09 A3013 RMK A01 T00441087  RH  038%=      5-min Rain = 0
KMNS 111655Z 35022G30KT 05/M09 A3013 RMK A01 T00471088  RH  037%=      5-min Rain = 0
KMNS 111700Z 35024G29KT 05/M09 A3013 RMK A01 T00481090  RH  036%=      5-min Rain = 0
KMNS 111705Z 35024G33KT 05/M09 A3013 RMK A01 T00471091  RH  036%=      5-min Rain = 0
KMNS 111710Z 35024G31KT 05/M09 A3014 RMK A01 T00481093  RH  036%=      5-min Rain = 0
KMNS 111715Z 35023G30KT 05/M09 A3014 RMK A01 T00521093  RH  035%=      5-min Rain = 0
KMNS 111720Z 35022G28KT 05/M09 A3014 RMK A01 T00521093  RH  035%=      5-min Rain = 0
KMNS 111725Z 35020G25KT 06/M09 A3015 RMK A01 T00561092  RH  034%=      5-min Rain = 0
KMNS 111730Z 34021G27KT 06/M09 A3015 RMK A01 T00561093  RH  034%=      5-min Rain = 0
KMNS 111735Z 34022G27KT 06/M09 A3016 RMK A01 T00561094  RH  033%=      5-min Rain = 0
KMNS 111740Z 35022G29KT 06/M10 A3016 RMK A01 T00581097  RH  032%=      5-min Rain = 0
KMNS 111745Z 35023G29KT 06/M10 A3016 RMK A01 T00581099  RH  032%=      5-min Rain = 0
KMNS 111750Z 34023G30KT 06/M10 A3016 RMK A01 T00591100  RH  031%=      5-min Rain = 0
KMNS 111755Z 34023G29KT 06/M10 A3016 RMK A01 T00581100  RH  032%=      5-min Rain = 0
KMNS 111800Z 35023G30KT 06/M10 A3016 RMK A01 T00611101  RH  031%=      5-min Rain = 0
KMNS 111805Z 35021G28KT 06/M10 A3016 RMK A01 T00611100  RH  031%=      5-min Rain = 0
KMNS 111810Z 35020G25KT 07/M10 A3016 RMK A01 T00651098  RH  031%=      5-min Rain = 0
KMNS 111815Z 35023G29KT 07/M10 A3016 RMK A01 T00661098  RH  030%=      5-min Rain = 0
KMNS 111820Z 35019G27KT 07/M10 A3017 RMK A01 T00681097  RH  030%=      5-min Rain = 0
KMNS 111825Z 34020G28KT 07/M10 A3017 RMK A01 T00731096  RH  029%=      5-min Rain = 0
KMNS 111830Z 34023G30KT 07/M10 A3017 RMK A01 T00691099  RH  029%=      5-min Rain = 0
KMNS 111835Z 34019G24KT 07/M10 A3017 RMK A01 T00741098  RH  029%=      5-min Rain = 0
KMNS 111840Z 35020G27KT 07/M10 A3017 RMK A01 T00731099  RH  029%=      5-min Rain = 0
KMNS 111845Z 36021G27KT 07/M10 A3016 RMK A01 T00741100  RH  028%=      5-min Rain = 0
KMNS 111850Z 34019G25KT 08/M10 A3017 RMK A01 T00751099  RH  028%=      5-min Rain = 0
KMNS 111855Z 34017G24KT 08/M10 A3017 RMK A01 T00811097  RH  027%=      5-min Rain = 0
KMNS 111900Z 35019KT 08/M10 A3016 RMK A01 T00771100  RH  028%=      5-min Rain = 0
KMNS 111905Z 35020G25KT 08/M10 A3016 RMK A01 T00791101  RH  027%=      5-min Rain = 0
KMNS 111910Z 35019G24KT 08/M10 A3016 RMK A01 T00791102  RH  027%=      5-min Rain = 0
KMNS 111915Z 34018G23KT 08/M10 A3016 RMK A01 T00811101  RH  027%=      5-min Rain = 0
KMNS 111920Z 35020G26KT 08/M11 A3016 RMK A01 T00831105  RH  025%=      5-min Rain = 0
KMNS 111925Z 00019G27KT 08/M10 A3016 RMK A01 T00811104  RH  026%=      5-min Rain = 0
KMNS 111930Z 36016KT 09/M10 A3016 RMK A01 T00861102  RH  026%=      5-min Rain = 0
KMNS 111935Z 35017G26KT 09/M10 A3016 RMK A01 T00851101  RH  026%=      5-min Rain = 0
KMNS 111940Z 34016G24KT 09/M10 A3016 RMK A01 T00891102  RH  025%=      5-min Rain = 0
KMNS 111945Z 34020KT 09/M11 A3016 RMK A01 T00871105  RH  025%=      5-min Rain = 0
KMNS 111950Z 35020G26KT 09/M10 A3016 RMK A01 T00901104  RH  025%=      5-min Rain = 0
KMNS 111955Z 35021G27KT 09/M11 A3016 RMK A01 T00901107  RH  024%=      5-min Rain = 0
KMNS 112000Z 36021G26KT 09/M11 A3016 RMK A01 T00911106  RH  024%=      5-min Rain = 0
KMNS 112005Z 35019G24KT 09/M11 A3016 RMK A01 T00911106  RH  024%=      5-min Rain = 0
KMNS 112010Z 35018KT 09/M11 A3016 RMK A01 T00911106  RH  024%=      5-min Rain = 0
KMNS 112015Z 36020G26KT 09/M11 A3016 RMK A01 T00931107  RH  023%=      5-min Rain = 0
KMNS 112020Z 01020G26KT 09/M11 A3016 RMK A01 T00891109  RH  024%=      5-min Rain = 0
KMNS 112025Z 01020G25KT 09/M11 A3016 RMK A01 T00921108  RH  023%=      5-min Rain = 0
KMNS 112030Z 36019G25KT 09/M11 A3016 RMK A01 T00941109  RH  023%=      5-min Rain = 0
KMNS 112035Z 01019G27KT 09/M11 A3016 RMK A01 T00941109  RH  023%=      5-min Rain = 0
KMNS 112040Z 35020G26KT 10/M11 A3016 RMK A01 T00971111  RH  022%=      5-min Rain = 0
KMNS 112045Z 36020G26KT 09/M11 A3017 RMK A01 T00931113  RH  022%=      5-min Rain = 0
KMNS 112050Z 36018G27KT 09/M11 A3017 RMK A01 T00941111  RH  022%=      5-min Rain = 0
KMNS 112055Z 00019G25KT 10/M11 A3017 RMK A01 T00961113  RH  022%=      5-min Rain = 0
KMNS 112100Z 00017G23KT 10/M11 A3017 RMK A01 T00971113  RH  022%=      5-min Rain = 0
KMNS 112105Z 36018KT 10/M11 A3018 RMK A01 T00951113  RH  022%=      5-min Rain = 0
KMNS 112110Z 35016G23KT 10/M11 A3018 RMK A01 T00961112  RH  022%=      5-min Rain = 0
KMNS 112115Z 36015G21KT 10/M11 A3018 RMK A01 T00961113  RH  022%=      5-min Rain = 0
KMNS 112120Z 36017G22KT 10/M12 A3018 RMK A01 T00961116  RH  021%=      5-min Rain = 0
KMNS 112125Z 34017G22KT 10/M12 A3018 RMK A01 T00951118  RH  021%=      5-min Rain = 0
KMNS 112130Z 00016G22KT 10/M12 A3018 RMK A01 T00961117  RH  021%=      5-min Rain = 0
KMNS 112135Z 35018G25KT 10/M12 A3018 RMK A01 T00961119  RH  021%=      5-min Rain = 0
KMNS 112140Z 35018G24KT 10/M12 A3018 RMK A01 T00951118  RH  021%=      5-min Rain = 0
KMNS 112145Z 36015G22KT 09/M12 A3019 RMK A01 T00941118  RH  021%=      5-min Rain = 0
KMNS 112150Z 35015G20KT 10/M12 A3019 RMK A01 T00951117  RH  021%=      5-min Rain = 0
KMNS 112155Z 35014G20KT 10/M12 A3019 RMK A01 T00951117  RH  021%=      5-min Rain = 0
KMNS 112200Z 34015KT 09/M12 A3019 RMK A01 T00931117  RH  022%=      5-min Rain = 0
KMNS 112205Z 35013KT 09/M12 A302 RMK A01 T00931115  RH  022%=      5-min Rain = 0
KMNS 112210Z 01012G17KT 09/M12 A302 RMK A01 T00941115  RH  022%=      5-min Rain = 0
KMNS 112215Z 36012KT 09/M12 A302 RMK A01 T00931115  RH  022%=      5-min Rain = 0
KMNS 112220Z 35012KT 09/M12 A302 RMK A01 T00931116  RH  022%=      5-min Rain = 0
KMNS 112225Z 35013KT 09/M12 A3021 RMK A01 T00931116  RH  022%=      5-min Rain = 0
KMNS 112230Z 00011KT 09/M12 A3021 RMK A01 T00921116  RH  022%=      5-min Rain = 0
KMNS 112235Z 34012KT 09/M12 A3021 RMK A01 T00921115  RH  022%=      5-min Rain = 0
KMNS 112240Z 34011KT 09/M12 A3021 RMK A01 T00941116  RH  022%=      5-min Rain = 0
KMNS 112245Z 34010G15KT 09/M12 A3021 RMK A01 T00911115  RH  022%=      5-min Rain = 0
KMNS 112250Z 36012KT 09/M12 A3021 RMK A01 T00901116  RH  022%=      5-min Rain = 0
KMNS 112255Z 00012G19KT 09/M12 A3022 RMK A01 T00881116  RH  023%=      5-min Rain = 0
KMNS 112300Z 36012G18KT 09/M12 A3022 RMK A01 T00881116  RH  023%=      5-min Rain = 0
KMNS 112305Z 00012G17KT 09/M12 A3022 RMK A01 T00881117  RH  022%=      5-min Rain = 0
KMNS 112310Z 36011KT 09/M12 A3022 RMK A01 T00861118  RH  022%=      5-min Rain = 0
KMNS 112315Z 00010KT 09/M12 A3022 RMK A01 T00851118  RH  023%=      5-min Rain = 0
KMNS 112320Z 00010KT 08/M12 A3022 RMK A01 T00841118  RH  023%=      5-min Rain = 0
KMNS 112325Z 01011KT 08/M12 A3022 RMK A01 T00821118  RH  023%=      5-min Rain = 0
KMNS 112330Z 01009KT 08/M12 A3022 RMK A01 T00801118  RH  024%=      5-min Rain = 0
KMNS 112335Z 36010KT 08/M12 A3022 RMK A01 T00781118  RH  024%=      5-min Rain = 0
KMNS 112340Z 36009KT 08/M12 A3023 RMK A01 T00761117  RH  024%=      5-min Rain = 0
KMNS 112345Z 01009KT 07/M12 A3023 RMK A01 T00741117  RH  025%=      5-min Rain = 0
KMNS 112350Z 01008KT 07/M12 A3023 RMK A01 T00711117  RH  025%=      5-min Rain = 0
KMNS 112355Z 01007KT 07/M12 A3023 RMK A01 T00671117  RH  026%=      5-min Rain = 0
KMNS 120000Z 02006KT 06/M12 A3023 RMK A01 T00621119  RH  026%=      5-min Rain = 0
KMNS 120005Z 01006KT 06/M12 A3023 RMK A01 T00581119  RH  027%=      5-min Rain = 0
KMNS 120010Z 01007KT 05/M12 A3024 RMK A01 T00531119  RH  028%=      5-min Rain = 0
KMNS 120015Z 01007KT 05/M12 A3024 RMK A01 T00491120  RH  029%=      5-min Rain = 0
KMNS 120020Z 01007KT 05/M12 A3024 RMK A01 T00491120  RH  029%=      5-min Rain = 0
KMNS 120025Z 02007KT 05/M12 A3024 RMK A01 T00481121  RH  029%=      5-min Rain = 0
KMNS 120030Z 02007KT 04/M12 A3024 RMK A01 T00441122  RH  029%=      5-min Rain = 0
KMNS 120035Z 02006KT 04/M12 A3024 RMK A01 T00411124  RH  029%=      5-min Rain = 0
KMNS 120040Z 03006KT 04/M13 A3024 RMK A01 T00371125  RH  030%=      5-min Rain = 0
KMNS 120045Z 03006KT 03/M13 A3024 RMK A01 T00341127  RH  030%=      5-min Rain = 0
KMNS 120050Z 04006KT 03/M13 A3024 RMK A01 T00301128  RH  031%=      5-min Rain = 0
KMNS 120055Z 03005KT 03/M13 A3024 RMK A01 T00261130  RH  031%=      5-min Rain = 0
KMNS 120100Z 03005KT 02/M13 A3024 RMK A01 T00231129  RH  032%=      5-min Rain = 0
KMNS 120105Z 02005KT 02/M13 A3024 RMK A01 T00211128  RH  033%=      5-min Rain = 0
KMNS 120110Z 02006KT 02/M13 A3025 RMK A01 T00191127  RH  033%=      5-min Rain = 0
KMNS 120115Z 02007KT 01/M13 A3025 RMK A01 T00111132  RH  034%=      5-min Rain = 0
KMNS 120120Z 02006KT 01/M13 A3025 RMK A01 T00071131  RH  035%=      5-min Rain = 0
KMNS 120125Z 03006KT 01/M13 A3025 RMK A01 T00091129  RH  035%=      5-min Rain = 0
KMNS 120130Z 03006KT 01/M13 A3025 RMK A01 T00101131  RH  035%=      5-min Rain = 0
KMNS 120135Z 03006KT 01/M13 A3025 RMK A01 T00081132  RH  035%=      5-min Rain = 0
KMNS 120140Z 03006KT 01/M13 A3025 RMK A01 T00081132  RH  035%=      5-min Rain = 0
KMNS 120145Z 03007KT 01/M13 A3025 RMK A01 T00081133  RH  034%=      5-min Rain = 0
KMNS 120150Z 04006KT 01/M13 A3025 RMK A01 T00081134  RH  034%=      5-min Rain = 0
KMNS 120155Z 04006KT 01/M13 A3025 RMK A01 T00071133  RH  035%=      5-min Rain = 0
KMNS 120200Z 06005KT 00/M13 A3025 RMK A01 T00041134  RH  035%=      5-min Rain = 0
KMNS 120205Z 07004KT M01/M14 A3026 RMK A01 T10091137  RH  038%=      5-min Rain = 0
KMNS 120210Z 07004KT M01/M14 A3025 RMK A01 T10131135  RH  040%=      5-min Rain = 0
KMNS 120215Z 05005KT M01/M14 A3025 RMK A01 T10131138  RH  039%=      5-min Rain = 0
KMNS 120220Z 05006KT M02/M15 A3025 RMK A01 T10231146  RH  039%=      5-min Rain = 0
KMNS 120225Z 06005KT M02/M14 A3025 RMK A01 T10221142  RH  040%=      5-min Rain = 0
KMNS 120230Z 07004KT M02/M14 A3025 RMK A01 T10221141  RH  040%=      5-min Rain = 0
KMNS 120235Z 06004KT M02/M14 A3025 RMK A01 T10231140  RH  041%=      5-min Rain = 0
KMNS 120240Z 05004KT M02/M14 A3025 RMK A01 T10191136  RH  041%=      5-min Rain = 0
KMNS 120245Z 05004KT M02/M13 A3025 RMK A01 T10151133  RH  041%=      5-min Rain = 0
KMNS 120250Z 05003KT M01/M13 A3025 RMK A01 T10111132  RH  040%=      5-min Rain = 0
KMNS 120255Z 05003KT M01/M13 A3025 RMK A01 T10111133  RH  040%=      5-min Rain = 0
KMNS 120300Z 05003KT M01/M13 A3025 RMK A01 T10131134  RH  040%=      5-min Rain = 0
KMNS 120305Z 05003KT M01/M13 A3025 RMK A01 T10141133  RH  041%=      5-min Rain = 0
KMNS 120310Z 06003KT M02/M13 A3025 RMK A01 T10151131  RH  041%=      5-min Rain = 0
KMNS 120315Z 06003KT M01/M13 A3025 RMK A01 T10131129  RH  042%=      5-min Rain = 0
KMNS 120320Z 06003KT M01/M13 A3025 RMK A01 T10111129  RH  041%=      5-min Rain = 0
KMNS 120325Z 07002KT M01/M13 A3025 RMK A01 T10131130  RH  041%=      5-min Rain = 0
KMNS 120330Z 07003KT M02/M13 A3025 RMK A01 T10171132  RH  042%=      5-min Rain = 0
KMNS 120335Z 08002KT M02/M13 A3025 RMK A01 T10201133  RH  042%=      5-min Rain = 0
KMNS 120340Z 08002KT M02/M13 A3025 RMK A01 T10211134  RH  042%=      5-min Rain = 0
KMNS 120345Z 09002KT M02/M13 A3025 RMK A01 T10231134  RH  043%=      5-min Rain = 0
KMNS 120350Z 09002KT M03/M14 A3025 RMK A01 T10251136  RH  043%=      5-min Rain = 0
KMNS 120355Z 11002KT M03/M14 A3026 RMK A01 T10261136  RH  043%=      5-min Rain = 0
KMNS 120400Z 14002KT M03/M13 A3026 RMK A01 T10261134  RH  044%=      5-min Rain = 0
KMNS 120405Z 15001KT M03/M13 A3026 RMK A01 T10261132  RH  045%=      5-min Rain = 0
KMNS 120410Z 10000KT M03/M13 A3026 RMK A01 T10251129  RH  045%=      5-min Rain = 0
KMNS 120415Z 10001KT M02/M12 A3026 RMK A01 T10201124  RH  046%=      5-min Rain = 0
KMNS 120420Z 10000KT M01/M12 A3026 RMK A01 T10141123  RH  044%=      5-min Rain = 0
KMNS 120425Z 10000KT M02/M12 A3027 RMK A01 T10151124  RH  044%=      5-min Rain = 0
KMNS 120430Z 00000KT M02/M12 A3026 RMK A01 T10161123  RH  044%=      5-min Rain = 0
KMNS 120435Z 10000KT M02/M12 A3026 RMK A01 T10241124  RH  047%=      5-min Rain = 0
KMNS 120440Z 10001KT M03/M13 A3026 RMK A01 T10321127  RH  049%=      5-min Rain = 0
KMNS 120445Z 10001KT M03/M12 A3026 RMK A01 T10251121  RH  048%=      5-min Rain = 0
KMNS 120450Z 10001KT M02/M12 A3026 RMK A01 T10231124  RH  046%=      5-min Rain = 0
KMNS 120455Z 10001KT M02/M12 A3026 RMK A01 T10211122  RH  047%=      5-min Rain = 0
KMNS 120500Z 10001KT M02/M12 A3026 RMK A01 T10161122  RH  045%=      5-min Rain = 0
KMNS 120505Z 10001KT M03/M13 A3026 RMK A01 T10301132  RH  046%=      5-min Rain = 0
KMNS 120510Z 10001KT M03/M13 A3027 RMK A01 T10301126  RH  048%=      5-min Rain = 0
KMNS 120515Z 10002KT M02/M13 A3026 RMK A01 T10241125  RH  047%=      5-min Rain = 0
KMNS 120520Z 10001KT M03/M14 A3027 RMK A01 T10311137  RH  045%=      5-min Rain = 0
KMNS 120525Z 11001KT M04/M15 A3027 RMK A01 T10431147  RH  045%=      5-min Rain = 0
KMNS 120530Z 11001KT M04/M14 A3027 RMK A01 T10431135  RH  050%=      5-min Rain = 0
KMNS 120535Z 13001KT M04/M13 A3027 RMK A01 T10411131  RH  050%=      5-min Rain = 0
KMNS 120540Z 13000KT M05/M14 A3027 RMK A01 T10461138  RH  049%=      5-min Rain = 0
KMNS 120545Z 12001KT M05/M13 A3027 RMK A01 T10471132  RH  052%=      5-min Rain = 0
KMNS 120550Z 11001KT M04/M13 A3027 RMK A01 T10441133  RH  051%=      5-min Rain = 0
KMNS 120555Z 12001KT M05/M13 A3027 RMK A01 T10461131  RH  052%=      5-min Rain = 0

Page generated in 0.0324 seconds.